Fire Weather Observation
Issued by NWS Grand Junction, CO

Home | Current Version | Previous Version | Text Only | Print | Product List | Glossary Off
Versions: 1 2 3 4 5 6 7 8 9 10 11 12 13 14 15 16 17 18 19 20 21 22 23 24 25 26 27 28 29

000
SHUS65 KGJT 202025
FWOGJT

DAILY FIRE WEATHER OBSERVATION
NATIONAL WEATHER SERVICE GRAND JUNCTION CO
224 PM MDT SAT MAY 20 2017

STATE OF THE WEATHER (W)               1
DRY BULB TEMPERATURE                   62   DEGREES FAHRENHEIT
RELATIVE HUMIDITY (RH)                 27   PERCENT
LIGHTNING ACTIVITY LEVEL
  (LAL - MIDNIGHT TO 2 PM)             1
WIND DIRECTION                         270  DEGREES (C IF CALM)
WIND SPEED                             9    MPH
MAX TEMP (2 PM - 2 PM)                 62   DEGREES FAHRENHEIT
MIN TEMP (2 PM - 2 PM)                 35   DEGREES FAHRENHEIT
MAX RH (2 PM - 2 PM)                   89   PERCENT
MIN RH (2 PM - 2 PM)                   27   PERCENT
PCPN DURATION                          0.6  HOURS
PCPN AMT (2 PM - 2 PM)                 0.01 INCHES
LAL (2 PM - 2 PM)                      1

$$

METAR KGJT 201953Z 26008KT 10SM BKN075 17/M02 A3013 RMK AO2
      SLP172 T01671022



USA.gov is the U.S. government's official web portal to all federal, state and local government web resources and services.